Terminal Aerodrome Forecast
Issued by NWS Portland, OR

Home | Current Version | Previous Version | Text Only | Print | Product List | Glossary On
Versions: 1 2 3 4 5 6 7 8 9 10 11 12 13 14 15 16 17 18 19 20 21 22 23 24 25 26 27 28 29 30 31
661
FTUS46 KPQR 130543
TAFEUG
TAF
KEUG 130543Z 1306/1406 21005KT P6SM SCT050
     FM131500 17005KT 5SM BR OVC015
     FM131900 18010KT P6SM OVC120
     FM140000 19012KT P6SM -RA BKN050 OVC100
     FM140300 19012KT 6SM -RA BKN025 OVC050=

USA.gov is the U.S. government's official web portal to all federal, state and local government web resources and services.